sensor_id;sensor_type;location;lat;lon;timestamp;pressure;altitude;pressure_sealevel;temperature;humidity
76050;BME280;64967;50.234;19.224;2023-11-18T00:01:41;76259.81;;;-143.90;100.00
76050;BME280;64967;50.234;19.224;2023-11-18T00:04:09;76280.50;;;-143.90;100.00
76050;BME280;64967;50.234;19.224;2023-11-18T00:06:42;76307.38;;;-143.90;100.00
76050;BME280;64967;50.234;19.224;2023-11-18T00:09:12;76286.69;;;-143.90;100.00
76050;BME280;64967;50.234;19.224;2023-11-18T00:11:42;76272.22;;;-143.90;100.00
76050;BME280;64967;50.234;19.224;2023-11-18T00:14:09;76270.16;;;-143.90;100.00
76050;BME280;64967;50.234;19.224;2023-11-18T00:16:40;76274.28;;;-143.90;100.00
76050;BME280;64967;50.234;19.224;2023-11-18T00:19:06;76280.50;;;-143.90;100.00
76050;BME280;64967;50.234;19.224;2023-11-18T00:21:36;76276.38;;;-143.90;100.00
76050;BME280;64967;50.234;19.224;2023-11-18T00:24:03;76268.09;;;-143.90;100.00
76050;BME280;64967;50.234;19.224;2023-11-18T00:26:30;76266.03;;;-143.90;100.00
76050;BME280;64967;50.234;19.224;2023-11-18T00:28:57;76272.22;;;-143.90;100.00
76050;BME280;64967;50.234;19.224;2023-11-18T00:31:23;76270.16;;;-143.90;100.00
76050;BME280;64967;50.234;19.224;2023-11-18T00:33:51;76286.69;;;-143.90;100.00
76050;BME280;64967;50.234;19.224;2023-11-18T00:36:19;76292.91;;;-143.90;100.00
76050;BME280;64967;50.234;19.224;2023-11-18T00:38:45;76288.78;;;-143.90;100.00
76050;BME280;64967;50.234;19.224;2023-11-18T00:41:13;76280.50;;;-143.90;100.00
76050;BME280;64967;50.234;19.224;2023-11-18T00:43:39;76288.78;;;-143.90;100.00
76050;BME280;64967;50.234;19.224;2023-11-18T00:46:06;76288.78;;;-143.90;100.00
76050;BME280;64967;50.234;19.224;2023-11-18T00:48:33;76284.63;;;-143.90;100.00
76050;BME280;64967;50.234;19.224;2023-11-18T00:50:59;76292.91;;;-143.90;100.00
76050;BME280;64967;50.234;19.224;2023-11-18T00:53:26;76280.50;;;-143.90;100.00
76050;BME280;64967;50.234;19.224;2023-11-18T00:55:53;76301.19;;;-143.90;100.00
76050;BME280;64967;50.234;19.224;2023-11-18T00:58:19;76282.56;;;-143.90;100.00
76050;BME280;64967;50.234;19.224;2023-11-18T01:00:46;76284.63;;;-143.90;100.00
76050;BME280;64967;50.234;19.224;2023-11-18T01:03:13;76263.97;;;-143.90;100.00
76050;BME280;64967;50.234;19.224;2023-11-18T01:05:40;76270.16;;;-143.90;100.00
76050;BME280;64967;50.234;19.224;2023-11-18T01:08:07;76288.78;;;-143.90;100.00
76050;BME280;64967;50.234;19.224;2023-11-18T01:10:35;76280.50;;;-143.90;100.00
76050;BME280;64967;50.234;19.224;2023-11-18T01:13:01;76263.97;;;-143.90;100.00
76050;BME280;64967;50.234;19.224;2023-11-18T01:15:28;76255.69;;;-143.90;100.00
76050;BME280;64967;50.234;19.224;2023-11-18T01:17:55;76266.03;;;-143.90;100.00
76050;BME280;64967;50.234;19.224;2023-11-18T01:20:22;76263.97;;;-143.90;100.00
76050;BME280;64967;50.234;19.224;2023-11-18T01:22:49;76274.28;;;-143.90;100.00
76050;BME280;64967;50.234;19.224;2023-11-18T01:25:16;76263.97;;;-143.90;100.00
76050;BME280;64967;50.234;19.224;2023-11-18T01:27:45;76263.97;;;-143.90;100.00
76050;BME280;64967;50.234;19.224;2023-11-18T01:30:15;76268.09;;;-143.90;100.00
76050;BME280;64967;50.234;19.224;2023-11-18T01:32:42;76274.28;;;-143.90;100.00
76050;BME280;64967;50.234;19.224;2023-11-18T01:35:09;76263.97;;;-143.90;100.00
76050;BME280;64967;50.234;19.224;2023-11-18T01:37:39;76251.53;;;-143.90;100.00
76050;BME280;64967;50.234;19.224;2023-11-18T01:40:07;76268.09;;;-143.90;100.00
76050;BME280;64967;50.234;19.224;2023-11-18T01:42:42;76270.16;;;-143.90;100.00
76050;BME280;64967;50.234;19.224;2023-11-18T01:45:09;76257.75;;;-143.90;100.00
76050;BME280;64967;50.234;19.224;2023-11-18T01:47:38;76251.53;;;-143.90;100.00
76050;BME280;64967;50.234;19.224;2023-11-18T01:50:07;76243.28;;;-143.90;100.00
76050;BME280;64967;50.234;19.224;2023-11-18T01:52:35;76257.75;;;-143.90;100.00
76050;BME280;64967;50.234;19.224;2023-11-18T01:55:03;76261.88;;;-143.90;100.00
76050;BME280;64967;50.234;19.224;2023-11-18T01:57:34;76257.75;;;-143.90;100.00
76050;BME280;64967;50.234;19.224;2023-11-18T02:00:01;76261.88;;;-143.90;100.00
76050;BME280;64967;50.234;19.224;2023-11-18T02:02:33;76251.53;;;-143.90;100.00
76050;BME280;64967;50.234;19.224;2023-11-18T02:05:00;76268.09;;;-143.90;100.00
76050;BME280;64967;50.234;19.224;2023-11-18T02:07:28;76255.69;;;-143.90;100.00
76050;BME280;64967;50.234;19.224;2023-11-18T02:09:55;76245.34;;;-143.90;100.00
76050;BME280;64967;50.234;19.224;2023-11-18T02:13:03;76251.53;;;-143.90;100.00
76050;BME280;64967;50.234;19.224;2023-11-18T02:15:36;76247.41;;;-143.90;100.00
76050;BME280;64967;50.234;19.224;2023-11-18T02:18:06;76247.41;;;-143.90;100.00
76050;BME280;64967;50.234;19.224;2023-11-18T02:20:37;76261.88;;;-143.90;100.00
76050;BME280;64967;50.234;19.224;2023-11-18T02:23:04;76255.69;;;-143.90;100.00
76050;BME280;64967;50.234;19.224;2023-11-18T02:25:34;76251.53;;;-143.90;100.00
76050;BME280;64967;50.234;19.224;2023-11-18T02:28:01;76255.69;;;-143.90;100.00
76050;BME280;64967;50.234;19.224;2023-11-18T02:30:27;76261.88;;;-143.90;100.00
76050;BME280;64967;50.234;19.224;2023-11-18T02:33:11;76249.47;;;-143.90;100.00
76050;BME280;64967;50.234;19.224;2023-11-18T02:36:05;76243.28;;;-143.90;100.00
76050;BME280;64967;50.234;19.224;2023-11-18T02:38:40;76276.38;;;-143.90;100.00
76050;BME280;64967;50.234;19.224;2023-11-18T02:41:13;76249.47;;;-143.90;100.00
76050;BME280;64967;50.234;19.224;2023-11-18T02:43:40;76255.69;;;-143.90;100.00
76050;BME280;64967;50.234;19.224;2023-11-18T02:46:11;76272.22;;;-143.90;100.00
76050;BME280;64967;50.234;19.224;2023-11-18T02:48:41;76272.22;;;-143.90;100.00
76050;BME280;64967;50.234;19.224;2023-11-18T02:51:10;76259.81;;;-143.90;100.00
76050;BME280;64967;50.234;19.224;2023-11-18T02:53:38;76268.09;;;-143.90;100.00
76050;BME280;64967;50.234;19.224;2023-11-18T02:56:07;76274.28;;;-143.90;100.00
76050;BME280;64967;50.234;19.224;2023-11-18T02:58:34;76294.97;;;-143.90;100.00
76050;BME280;64967;50.234;19.224;2023-11-18T03:01:00;76288.78;;;-143.90;100.00
76050;BME280;64967;50.234;19.224;2023-11-18T03:03:27;76288.78;;;-143.90;100.00
76050;BME280;64967;50.234;19.224;2023-11-18T03:05:55;76282.56;;;-143.90;100.00
76050;BME280;64967;50.234;19.224;2023-11-18T03:08:21;76294.97;;;-143.90;100.00
76050;BME280;64967;50.234;19.224;2023-11-18T03:10:48;76297.03;;;-143.90;100.00
76050;BME280;64967;50.234;19.224;2023-11-18T03:13:18;76301.19;;;-143.90;100.00
76050;BME280;64967;50.234;19.224;2023-11-18T03:15:45;76286.69;;;-143.90;100.00
76050;BME280;64967;50.234;19.224;2023-11-18T03:18:15;76305.31;;;-143.90;100.00
76050;BME280;64967;50.234;19.224;2023-11-18T03:20:41;76297.03;;;-143.90;100.00
76050;BME280;64967;50.234;19.224;2023-11-18T03:23:08;76301.19;;;-143.90;100.00
76050;BME280;64967;50.234;19.224;2023-11-18T03:25:35;76313.59;;;-143.90;100.00
76050;BME280;64967;50.234;19.224;2023-11-18T03:28:02;76307.38;;;-143.90;100.00
76050;BME280;64967;50.234;19.224;2023-11-18T03:30:31;76303.25;;;-143.90;100.00
76050;BME280;64967;50.234;19.224;2023-11-18T03:32:57;76323.94;;;-143.90;100.00
76050;BME280;64967;50.234;19.224;2023-11-18T03:35:24;76317.72;;;-143.90;100.00
76050;BME280;64967;50.234;19.224;2023-11-18T03:37:51;76319.78;;;-143.90;100.00
76050;BME280;64967;50.234;19.224;2023-11-18T03:40:18;76317.72;;;-143.90;100.00
76050;BME280;64967;50.234;19.224;2023-11-18T03:42:44;76313.59;;;-143.90;100.00
76050;BME280;64967;50.234;19.224;2023-11-18T03:45:14;76326.00;;;-143.90;100.00
76050;BME280;64967;50.234;19.224;2023-11-18T03:47:45;76305.31;;;-143.90;100.00
76050;BME280;64967;50.234;19.224;2023-11-18T03:50:11;76317.72;;;-143.90;100.00
76050;BME280;64967;50.234;19.224;2023-11-18T03:52:40;76309.44;;;-143.90;100.00
76050;BME280;64967;50.234;19.224;2023-11-18T03:55:07;76321.84;;;-143.90;100.00
76050;BME280;64967;50.234;19.224;2023-11-18T03:57:34;76307.38;;;-143.90;100.00
76050;BME280;64967;50.234;19.224;2023-11-18T04:00:01;76307.38;;;-143.90;100.00
76050;BME280;64967;50.234;19.224;2023-11-18T04:02:29;76303.25;;;-143.90;100.00
76050;BME280;64967;50.234;19.224;2023-11-18T04:04:56;76303.25;;;-143.90;100.00
76050;BME280;64967;50.234;19.224;2023-11-18T04:07:23;76309.44;;;-143.90;100.00
76050;BME280;64967;50.234;19.224;2023-11-18T04:09:49;76305.31;;;-143.90;100.00
76050;BME280;64967;50.234;19.224;2023-11-18T04:12:16;76303.25;;;-143.90;100.00
76050;BME280;64967;50.234;19.224;2023-11-18T04:14:42;76309.44;;;-143.90;100.00
76050;BME280;64967;50.234;19.224;2023-11-18T04:17:09;76301.19;;;-143.90;100.00
76050;BME280;64967;50.234;19.224;2023-11-18T04:19:36;76290.84;;;-143.90;100.00
76050;BME280;64967;50.234;19.224;2023-11-18T04:22:04;76301.19;;;-143.90;100.00
76050;BME280;64967;50.234;19.224;2023-11-18T04:24:31;76290.84;;;-143.90;100.00
76050;BME280;64967;50.234;19.224;2023-11-18T04:26:57;76301.19;;;-143.90;100.00
76050;BME280;64967;50.234;19.224;2023-11-18T04:29:24;76297.03;;;-143.90;100.00
76050;BME280;64967;50.234;19.224;2023-11-18T04:31:51;76301.19;;;-143.90;100.00
76050;BME280;64967;50.234;19.224;2023-11-18T04:34:17;76305.31;;;-143.90;100.00
76050;BME280;64967;50.234;19.224;2023-11-18T04:36:44;76297.03;;;-143.90;100.00
76050;BME280;64967;50.234;19.224;2023-11-18T04:39:11;76305.31;;;-143.90;100.00
76050;BME280;64967;50.234;19.224;2023-11-18T04:41:38;76313.59;;;-143.90;100.00
76050;BME280;64967;50.234;19.224;2023-11-18T04:44:05;76305.31;;;-143.90;100.00
76050;BME280;64967;50.234;19.224;2023-11-18T04:46:31;76317.72;;;-143.90;100.00
76050;BME280;64967;50.234;19.224;2023-11-18T04:48:58;76305.31;;;-143.90;100.00
76050;BME280;64967;50.234;19.224;2023-11-18T04:51:25;76292.91;;;-143.90;100.00
76050;BME280;64967;50.234;19.224;2023-11-18T04:53:52;76307.38;;;-143.90;100.00
76050;BME280;64967;50.234;19.224;2023-11-18T04:56:18;76309.44;;;-143.90;100.00
76050;BME280;64967;50.234;19.224;2023-11-18T04:58:46;76301.19;;;-143.90;100.00
76050;BME280;64967;50.234;19.224;2023-11-18T05:01:14;76288.78;;;-143.90;100.00
76050;BME280;64967;50.234;19.224;2023-11-18T05:03:41;76282.56;;;-143.90;100.00
76050;BME280;64967;50.234;19.224;2023-11-18T05:06:08;76297.03;;;-143.90;100.00
76050;BME280;64967;50.234;19.224;2023-11-18T05:08:35;76282.56;;;-143.90;100.00
76050;BME280;64967;50.234;19.224;2023-11-18T05:11:03;76294.97;;;-143.90;100.00
76050;BME280;64967;50.234;19.224;2023-11-18T05:13:31;76303.25;;;-143.90;100.00
76050;BME280;64967;50.234;19.224;2023-11-18T05:16:00;76284.63;;;-143.90;100.00
76050;BME280;64967;50.234;19.224;2023-11-18T05:18:27;76278.44;;;-143.90;100.00
76050;BME280;64967;50.234;19.224;2023-11-18T05:20:56;76288.78;;;-143.90;100.00
76050;BME280;64967;50.234;19.224;2023-11-18T05:23:23;76288.78;;;-143.90;100.00
76050;BME280;64967;50.234;19.224;2023-11-18T05:25:50;76309.44;;;-143.90;100.00
76050;BME280;64967;50.234;19.224;2023-11-18T05:28:17;76307.38;;;-143.90;100.00
76050;BME280;64967;50.234;19.224;2023-11-18T05:30:44;76313.59;;;-143.90;100.00
76050;BME280;64967;50.234;19.224;2023-11-18T05:33:11;76307.38;;;-143.90;100.00
76050;BME280;64967;50.234;19.224;2023-11-18T05:35:44;76294.97;;;-143.90;100.00
76050;BME280;64967;50.234;19.224;2023-11-18T05:38:18;76292.91;;;-143.90;100.00
76050;BME280;64967;50.234;19.224;2023-11-18T05:40:54;76313.59;;;-143.90;100.00
76050;BME280;64967;50.234;19.224;2023-11-18T05:43:25;76315.66;;;-143.90;100.00
76050;BME280;64967;50.234;19.224;2023-11-18T05:46:18;76317.72;;;-143.90;100.00
76050;BME280;64967;50.234;19.224;2023-11-18T05:48:48;76321.84;;;-143.90;100.00
76050;BME280;64967;50.234;19.224;2023-11-18T05:51:23;76311.53;;;-143.90;100.00
76050;BME280;64967;50.234;19.224;2023-11-18T05:53:51;76332.19;;;-143.90;100.00
76050;BME280;64967;50.234;19.224;2023-11-18T05:56:19;76326.00;;;-143.90;100.00
76050;BME280;64967;50.234;19.224;2023-11-18T05:58:46;76342.53;;;-143.90;100.00
76050;BME280;64967;50.234;19.224;2023-11-18T06:01:13;76342.53;;;-143.90;100.00
76050;BME280;64967;50.234;19.224;2023-11-18T06:03:44;76365.28;;;-143.90;100.00
76050;BME280;64967;50.234;19.224;2023-11-18T06:06:15;76379.75;;;-143.90;100.00
76050;BME280;64967;50.234;19.224;2023-11-18T06:08:49;76383.91;;;-143.90;100.00
76050;BME280;64967;50.234;19.224;2023-11-18T06:11:16;76379.75;;;-143.90;100.00
76050;BME280;64967;50.234;19.224;2023-11-18T06:13:48;76383.91;;;-143.90;100.00
76050;BME280;64967;50.234;19.224;2023-11-18T06:16:16;76375.63;;;-143.90;100.00
76050;BME280;64967;50.234;19.224;2023-11-18T06:18:44;76402.50;;;-143.90;100.00
76050;BME280;64967;50.234;19.224;2023-11-18T06:21:16;76408.72;;;-143.90;100.00
76050;BME280;64967;50.234;19.224;2023-11-18T06:23:45;76425.25;;;-143.90;100.00
76050;BME280;64967;50.234;19.224;2023-11-18T06:26:14;76441.81;;;-143.90;100.00
76050;BME280;64967;50.234;19.224;2023-11-18T06:28:42;76429.41;;;-143.90;100.00
76050;BME280;64967;50.234;19.224;2023-11-18T06:31:10;76445.94;;;-143.90;100.00
76050;BME280;64967;50.234;19.224;2023-11-18T06:33:42;76466.63;;;-143.90;100.00
76050;BME280;64967;50.234;19.224;2023-11-18T06:38:46;76507.97;;;-143.90;100.00
76050;BME280;64967;50.234;19.224;2023-11-18T06:41:13;76520.38;;;-143.90;100.00
76050;BME280;64967;50.234;19.224;2023-11-18T06:43:43;76534.88;;;-143.90;100.00
76050;BME280;64967;50.234;19.224;2023-11-18T06:46:28;76524.53;;;-143.90;100.00
76050;BME280;64967;50.234;19.224;2023-11-18T06:49:01;76528.66;;;-143.90;100.00
76050;BME280;64967;50.234;19.224;2023-11-18T06:51:34;76532.78;;;-143.90;100.00
76050;BME280;64967;50.234;19.224;2023-11-18T06:54:04;76534.88;;;-143.90;100.00
76050;BME280;64967;50.234;19.224;2023-11-18T06:56:41;76543.13;;;-143.90;100.00
76050;BME280;64967;50.234;19.224;2023-11-18T06:59:12;76539.00;;;-143.90;100.00
76050;BME280;64967;50.234;19.224;2023-11-18T07:01:40;76541.06;;;-143.90;100.00
76050;BME280;64967;50.234;19.224;2023-11-18T07:04:07;76536.94;;;-143.90;100.00
76050;BME280;64967;50.234;19.224;2023-11-18T07:06:37;76512.13;;;-143.90;100.00
76050;BME280;64967;50.234;19.224;2023-11-18T07:09:09;76516.25;;;-143.90;100.00
76050;BME280;64967;50.234;19.224;2023-11-18T07:11:40;76503.84;;;-143.90;100.00
76050;BME280;64967;50.234;19.224;2023-11-18T07:14:10;76524.53;;;-143.90;100.00
76050;BME280;64967;50.234;19.224;2023-11-18T07:16:41;76503.84;;;-143.90;100.00
76050;BME280;64967;50.234;19.224;2023-11-18T07:19:08;76501.78;;;-143.90;100.00
76050;BME280;64967;50.234;19.224;2023-11-18T07:21:36;76510.06;;;-143.90;100.00
76050;BME280;64967;50.234;19.224;2023-11-18T07:24:03;76512.13;;;-143.90;100.00
76050;BME280;64967;50.234;19.224;2023-11-18T07:26:30;76505.91;;;-143.90;100.00
76050;BME280;64967;50.234;19.224;2023-11-18T07:28:57;76512.13;;;-143.90;100.00
76050;BME280;64967;50.234;19.224;2023-11-18T07:31:23;76512.13;;;-143.90;100.00
76050;BME280;64967;50.234;19.224;2023-11-18T07:33:51;76524.53;;;-143.90;100.00
76050;BME280;64967;50.234;19.224;2023-11-18T07:36:19;76516.25;;;-143.90;100.00
76050;BME280;64967;50.234;19.224;2023-11-18T07:38:48;76507.97;;;-143.90;100.00
76050;BME280;64967;50.234;19.224;2023-11-18T07:41:16;76512.13;;;-143.90;100.00
76050;BME280;64967;50.234;19.224;2023-11-18T07:43:58;76516.25;;;-143.90;100.00
76050;BME280;64967;50.234;19.224;2023-11-18T07:46:25;76503.84;;;-143.90;100.00
76050;BME280;64967;50.234;19.224;2023-11-18T07:48:52;76495.56;;;-143.90;100.00
76050;BME280;64967;50.234;19.224;2023-11-18T07:51:19;76499.72;;;-143.90;100.00
76050;BME280;64967;50.234;19.224;2023-11-18T07:53:48;76483.16;;;-143.90;100.00
76050;BME280;64967;50.234;19.224;2023-11-18T07:56:15;76497.63;;;-143.90;100.00
76050;BME280;64967;50.234;19.224;2023-11-18T07:58:43;76495.56;;;-143.90;100.00
76050;BME280;64967;50.234;19.224;2023-11-18T08:01:14;76491.44;;;-143.90;100.00
76050;BME280;64967;50.234;19.224;2023-11-18T08:03:44;76507.97;;;-143.90;100.00
76050;BME280;64967;50.234;19.224;2023-11-18T08:06:11;76497.63;;;-143.90;100.00
76050;BME280;64967;50.234;19.224;2023-11-18T08:08:39;76489.38;;;-143.90;100.00
76050;BME280;64967;50.234;19.224;2023-11-18T08:11:10;76491.44;;;-143.90;100.00
76050;BME280;64967;50.234;19.224;2023-11-18T08:13:37;76499.72;;;-143.90;100.00
76050;BME280;64967;50.234;19.224;2023-11-18T08:16:04;76474.91;;;-143.90;100.00
76050;BME280;64967;50.234;19.224;2023-11-18T08:18:31;76483.16;;;-143.90;100.00
76050;BME280;64967;50.234;19.224;2023-11-18T08:20:58;76483.16;;;-143.90;100.00
76050;BME280;64967;50.234;19.224;2023-11-18T08:23:27;76474.91;;;-143.90;100.00
76050;BME280;64967;50.234;19.224;2023-11-18T08:25:55;76474.91;;;-143.90;100.00
76050;BME280;64967;50.234;19.224;2023-11-18T08:28:22;76474.91;;;-143.90;100.00
76050;BME280;64967;50.234;19.224;2023-11-18T08:30:49;76507.97;;;-143.90;100.00
76050;BME280;64967;50.234;19.224;2023-11-18T08:33:18;76514.19;;;-143.90;100.00
76050;BME280;64967;50.234;19.224;2023-11-18T08:35:45;76505.91;;;-143.90;100.00
76050;BME280;64967;50.234;19.224;2023-11-18T08:38:12;76512.13;;;-143.90;100.00
76050;BME280;64967;50.234;19.224;2023-11-18T08:40:39;76524.53;;;-143.90;100.00
76050;BME280;64967;50.234;19.224;2023-11-18T08:43:06;76532.78;;;-143.90;100.00
76050;BME280;64967;50.234;19.224;2023-11-18T08:45:36;76561.75;;;-143.90;100.00
76050;BME280;64967;50.234;19.224;2023-11-18T08:48:04;76580.38;;;-143.90;100.00
76050;BME280;64967;50.234;19.224;2023-11-18T08:50:36;76572.09;;;-143.90;100.00
76050;BME280;64967;50.234;19.224;2023-11-18T08:53:03;76582.44;;;-143.90;100.00
76050;BME280;64967;50.234;19.224;2023-11-18T08:55:36;76574.16;;;-143.90;100.00
76050;BME280;64967;50.234;19.224;2023-11-18T08:58:10;76582.44;;;-143.90;100.00
76050;BME280;64967;50.234;19.224;2023-11-18T09:00:51;76570.03;;;-143.90;100.00
76050;BME280;64967;50.234;19.224;2023-11-18T09:03:28;76582.44;;;-143.90;100.00
76050;BME280;64967;50.234;19.224;2023-11-18T09:05:56;76586.56;;;-143.90;100.00
76050;BME280;64967;50.234;19.224;2023-11-18T09:08:27;76598.97;;;-143.90;100.00
76050;BME280;64967;50.234;19.224;2023-11-18T09:10:56;76621.72;;;-143.90;100.00
76050;BME280;64967;50.234;19.224;2023-11-18T09:13:25;76623.78;;;-143.90;100.00
76050;BME280;64967;50.234;19.224;2023-11-18T09:15:56;76636.22;;;-143.90;100.00
76050;BME280;64967;50.234;19.224;2023-11-18T09:18:25;76632.06;;;-143.90;100.00
76050;BME280;64967;50.234;19.224;2023-11-18T09:20:53;76652.75;;;-143.90;100.00
76050;BME280;64967;50.234;19.224;2023-11-18T09:23:22;76652.75;;;-143.90;100.00
76050;BME280;64967;50.234;19.224;2023-11-18T09:25:49;76661.03;;;-143.90;100.00
76050;BME280;64967;50.234;19.224;2023-11-18T09:28:16;76654.81;;;-143.90;100.00
76050;BME280;64967;50.234;19.224;2023-11-18T09:30:43;76646.53;;;-143.90;100.00
76050;BME280;64967;50.234;19.224;2023-11-18T09:33:17;76646.53;;;-143.90;100.00
76050;BME280;64967;50.234;19.224;2023-11-18T09:35:52;76644.47;;;-143.90;100.00
76050;BME280;64967;50.234;19.224;2023-11-18T09:38:32;76632.06;;;-143.90;100.00
76050;BME280;64967;50.234;19.224;2023-11-18T09:41:03;76652.75;;;-143.90;100.00
76050;BME280;64967;50.234;19.224;2023-11-18T09:43:31;76654.81;;;-143.90;100.00
76050;BME280;64967;50.234;19.224;2023-11-18T09:46:28;76650.69;;;-143.90;100.00
76050;BME280;64967;50.234;19.224;2023-11-18T09:49:10;76671.38;;;-143.90;100.00
76050;BME280;64967;50.234;19.224;2023-11-18T09:51:43;76698.25;;;-143.90;100.00
76050;BME280;64967;50.234;19.224;2023-11-18T09:57:16;76714.78;;;-143.90;100.00
76050;BME280;64967;50.234;19.224;2023-11-18T09:59:54;76702.38;;;-143.90;100.00
76050;BME280;64967;50.234;19.224;2023-11-18T10:02:25;76702.38;;;-143.90;100.00
76050;BME280;64967;50.234;19.224;2023-11-18T10:04:52;76683.78;;;-143.90;100.00
76050;BME280;64967;50.234;19.224;2023-11-18T10:07:25;76694.13;;;-143.90;100.00
76050;BME280;64967;50.234;19.224;2023-11-18T10:09:59;76706.53;;;-143.90;100.00
76050;BME280;64967;50.234;19.224;2023-11-18T10:12:28;76702.38;;;-143.90;100.00
76050;BME280;64967;50.234;19.224;2023-11-18T10:14:56;76725.13;;;-143.90;100.00
76050;BME280;64967;50.234;19.224;2023-11-18T10:17:25;76731.34;;;-143.90;100.00
76050;BME280;64967;50.234;19.224;2023-11-18T10:19:57;76727.22;;;-143.90;100.00
76050;BME280;64967;50.234;19.224;2023-11-18T10:22:28;76723.06;;;-143.90;100.00
76050;BME280;64967;50.234;19.224;2023-11-18T10:24:56;76723.06;;;-143.90;100.00
76050;BME280;64967;50.234;19.224;2023-11-18T10:27:25;76733.41;;;-143.90;100.00
76050;BME280;64967;50.234;19.224;2023-11-18T10:29:56;76727.22;;;-143.90;100.00
76050;BME280;64967;50.234;19.224;2023-11-18T10:32:22;76747.88;;;-143.90;100.00
76050;BME280;64967;50.234;19.224;2023-11-18T10:34:57;76743.75;;;-143.90;100.00
76050;BME280;64967;50.234;19.224;2023-11-18T10:37:27;76745.81;;;-143.90;100.00
76050;BME280;64967;50.234;19.224;2023-11-18T10:40:04;76747.88;;;-143.90;100.00
76050;BME280;64967;50.234;19.224;2023-11-18T10:42:31;76739.63;;;-143.90;100.00
76050;BME280;64967;50.234;19.224;2023-11-18T10:45:00;76743.75;;;-143.90;100.00
76050;BME280;64967;50.234;19.224;2023-11-18T10:47:33;76745.81;;;-143.90;100.00
76050;BME280;64967;50.234;19.224;2023-11-18T10:50:02;76733.41;;;-143.90;100.00
76050;BME280;64967;50.234;19.224;2023-11-18T10:52:29;76733.41;;;-143.90;100.00
76050;BME280;64967;50.234;19.224;2023-11-18T10:54:57;76749.97;;;-143.90;100.00
76050;BME280;64967;50.234;19.224;2023-11-18T10:57:24;76780.97;;;-143.90;100.00
76050;BME280;64967;50.234;19.224;2023-11-18T11:00:02;76783.03;;;-143.90;100.00
76050;BME280;64967;50.234;19.224;2023-11-18T11:02:30;76752.03;;;-143.90;100.00
76050;BME280;64967;50.234;19.224;2023-11-18T11:05:01;76739.63;;;-143.90;100.00
76050;BME280;64967;50.234;19.224;2023-11-18T11:07:32;76743.75;;;-143.90;100.00
76050;BME280;64967;50.234;19.224;2023-11-18T11:10:00;76758.22;;;-143.90;100.00
76050;BME280;64967;50.234;19.224;2023-11-18T11:12:37;76770.63;;;-143.90;100.00
76050;BME280;64967;50.234;19.224;2023-11-18T11:15:12;76752.03;;;-143.90;100.00
76050;BME280;64967;50.234;19.224;2023-11-18T11:17:46;76752.03;;;-143.90;100.00
76050;BME280;64967;50.234;19.224;2023-11-18T11:20:19;76747.88;;;-143.90;100.00
76050;BME280;64967;50.234;19.224;2023-11-18T11:23:23;76747.88;;;-143.90;100.00
76050;BME280;64967;50.234;19.224;2023-11-18T11:28:22;76749.97;;;-143.90;100.00
76050;BME280;64967;50.234;19.224;2023-11-18T11:31:05;76760.28;;;-143.90;100.00
76050;BME280;64967;50.234;19.224;2023-11-18T11:36:11;76776.84;;;-143.90;100.00
76050;BME280;64967;50.234;19.224;2023-11-18T11:38:38;76766.50;;;-143.90;100.00
76050;BME280;64967;50.234;19.224;2023-11-18T11:41:05;76776.84;;;-143.90;100.00
76050;BME280;64967;50.234;19.224;2023-11-18T11:43:34;76776.84;;;-143.90;100.00
76050;BME280;64967;50.234;19.224;2023-11-18T11:46:02;76764.44;;;-143.90;100.00
76050;BME280;64967;50.234;19.224;2023-11-18T11:48:40;76756.16;;;-143.90;100.00
76050;BME280;64967;50.234;19.224;2023-11-18T11:53:54;76776.84;;;-143.90;100.00
76050;BME280;64967;50.234;19.224;2023-11-18T11:56:38;76793.38;;;-143.90;100.00
76050;BME280;64967;50.234;19.224;2023-11-18T11:59:04;76799.59;;;-143.90;100.00
76050;BME280;64967;50.234;19.224;2023-11-18T12:01:38;76801.66;;;-143.90;100.00
76050;BME280;64967;50.234;19.224;2023-11-18T12:04:08;76820.28;;;-143.90;100.00
76050;BME280;64967;50.234;19.224;2023-11-18T12:06:41;76830.63;;;-143.90;100.00
76050;BME280;64967;50.234;19.224;2023-11-18T12:09:09;76822.34;;;-143.90;100.00
76050;BME280;64967;50.234;19.224;2023-11-18T12:11:36;76822.34;;;-143.90;100.00
76050;BME280;64967;50.234;19.224;2023-11-18T12:14:10;76845.09;;;-143.90;100.00
76050;BME280;64967;50.234;19.224;2023-11-18T12:17:00;76836.81;;;-143.90;100.00
76050;BME280;64967;50.234;19.224;2023-11-18T12:19:32;76847.16;;;-143.90;100.00
76050;BME280;64967;50.234;19.224;2023-11-18T12:22:22;76845.09;;;-143.90;100.00
76050;BME280;64967;50.234;19.224;2023-11-18T12:49:38;76859.56;;;-143.90;100.00
76050;BME280;64967;50.234;19.224;2023-11-18T12:52:09;76876.13;;;-143.90;100.00
76050;BME280;64967;50.234;19.224;2023-11-18T12:54:36;76859.56;;;-143.90;100.00
76050;BME280;64967;50.234;19.224;2023-11-18T12:57:10;76838.88;;;-143.90;100.00
76050;BME280;64967;50.234;19.224;2023-11-18T12:59:41;76830.63;;;-143.90;100.00
76050;BME280;64967;50.234;19.224;2023-11-18T13:02:12;76855.44;;;-143.90;100.00
76050;BME280;64967;50.234;19.224;2023-11-18T13:04:46;76867.84;;;-143.90;100.00
76050;BME280;64967;50.234;19.224;2023-11-18T13:07:17;76876.13;;;-143.90;100.00
76050;BME280;64967;50.234;19.224;2023-11-18T13:09:44;76886.47;;;-143.90;100.00
76050;BME280;64967;50.234;19.224;2023-11-18T13:12:13;76880.25;;;-143.90;100.00